Aérodrome :
LOGIN :

S'inscrire | Disclaimer

   EN    FR    IT 

 










Légende :    VFR   VFR Marginal   IFR   IFR Intensif   IFR Très Intensif
Visi : 
Plafond : 
>= 8 km
>= 3000ft
5 à 8 km
1000 à 3000 ft
1500m à 5 km
500 à 1000 ft
800 à 1500m
200 à 500 ft
< 800m
< 200 ft
Symboles :   Orages  Brouillard  Fortes neiges  Fortes précipitations  Vent > 20 kt
SIGMETs :   Divers  Orages  Givrage  Turbulence  Onde Orograph.  Cendres Volcan.







- Altitude de l'aérodrome : 15 ft
- Code IATA : BHD
- Voir les cartes d'approche


EGAC - George Best Belfast City

DERNIER METAR :
  • 220350Z AUTO 22007KT 9999 -RA NCD 10/06 Q1005

METARs EXPIRÉS :
  • 220320Z AUTO 21008KT 9999 NCD 11/05 Q1005
  • 220250Z AUTO 19007KT 9999 NCD 11/04 Q1005
  • 220220Z AUTO 18005KT 9999 NCD 11/05 Q1005
  • 220150Z AUTO 18005KT 9999 NCD 10/05 Q1006
  • 220120Z AUTO 17005KT 9999 NCD 10/05 Q1006

Prévision TAF périmée.
ATIS : +44 02890 935 124
Pas de NOTAMs connus pour ce terrain.
1 SIGMET publié pour la FIR Scottish (EGPX) :
 
Orages fréquents avec grêle
EGPX SIGMET 01 VALID 220300/220700 EGRR
EGPX SCOTTISH FIR FRQ TSGR FCST WI N5727 W00147 - N5647 E00209 - N5531 E00051 - N5607 W00233 - N5727 W00147 TOP FL320 MOV NNE 15KT NC=



MET'MAP, la Météo Aéronautique d'un coup d'oeil ! - Copyright ORBIFLY Décembre 2007 - Disclaimer

ORBIFLY MET'MAP TEAM :

Programmation & Développement : Alexandra Zaïnal
Conception & Développement : Baudouin d'Aumeries
Co-Programmation & Développement : Marc-Olivier Méhu
Soutien technique & logistique : Manuel Goepfert

Contact : metmap@orbifly.com




SOURCES & CREDITS :

   NOAA